Time;durP1;ratioP1;P1;durP2;ratioP2;P2;SDS_P1;SDS_P2;PMS_P1;PMS_P2;Temp;Humidity;BMP_temperature;BMP_pressure;BME280_temperature;BME280_humidity;BME280_pressure;Samples;Min_cycle;Max_cycle;Signal;HPM_P1;HPM_P2
2022/11/10 00:00:07;;;;;;;;;;;22.20;93.00;;;;;;5022010;28;20282;-70
2022/11/10 00:02:34;;;;;;;;;;;22.20;93.60;;;;;;5021510;28;19924;-71
2022/11/10 00:05:01;;;;;;;;;;;22.20;93.40;;;;;;5021217;28;19916;-68
2022/11/10 00:07:28;;;;;;;;;;;22.10;92.60;;;;;;5020526;28;19967;-68
2022/11/10 00:09:54;;;;;;;;;;;22.20;93.10;;;;;;5021400;28;19951;-68
2022/11/10 00:12:22;;;;;;;;;;;22.30;93.30;;;;;;5020713;28;19909;-71
2022/11/10 00:17:36;;;;;;;;;;;22.70;92.40;;;;;;5019983;28;20377;-69
2022/11/10 00:20:04;;;;;;;;;;;22.80;92.10;;;;;;5021050;28;19916;-69
2022/11/10 00:22:32;;;;;;;;;;;22.90;92.30;;;;;;5020101;28;19913;-69
2022/11/10 00:24:59;;;;;;;;;;;23.10;91.60;;;;;;5020487;28;19913;-69
2022/11/10 00:27:25;;;;;;;;;;;23.30;91.30;;;;;;5020396;28;19955;-69
2022/11/10 00:29:52;;;;;;;;;;;23.50;89.90;;;;;;5020908;28;20215;-69
2022/11/10 00:32:19;;;;;;;;;;;23.50;88.00;;;;;;5019322;28;19917;-69
2022/11/10 00:34:46;;;;;;;;;;;23.40;87.50;;;;;;5003343;28;19909;-68
2022/11/10 00:37:12;;;;;;;;;;;23.50;87.90;;;;;;5019945;28;20374;-69
2022/11/10 00:39:39;;;;;;;;;;;23.60;87.80;;;;;;5020154;28;20186;-70
2022/11/10 00:42:06;;;;;;;;;;;23.90;86.10;;;;;;5019031;28;20088;-68
2022/11/10 00:44:33;;;;;;;;;;;24.00;86.80;;;;;;5016071;28;19909;-69
2022/11/10 00:46:59;;;;;;;;;;;24.10;86.10;;;;;;5020781;28;19955;-69
2022/11/10 00:49:26;;;;;;;;;;;24.00;85.70;;;;;;5019079;28;19913;-70
2022/11/10 00:51:53;;;;;;;;;;;23.80;85.80;;;;;;5020479;28;19914;-72
2022/11/10 00:54:20;;;;;;;;;;;24.00;86.50;;;;;;5019659;28;19936;-69
2022/11/10 00:56:46;;;;;;;;;;;24.00;85.10;;;;;;5020397;28;20415;-68
2022/11/10 00:59:13;;;;;;;;;;;23.90;86.70;;;;;;5017115;28;19921;-67
2022/11/10 01:01:40;;;;;;;;;;;24.10;85.30;;;;;;5009128;28;19947;-68
2022/11/10 01:04:07;;;;;;;;;;;24.10;87.30;;;;;;5003972;28;19923;-70
2022/11/10 01:06:33;;;;;;;;;;;23.90;84.70;;;;;;5020285;28;20012;-69
2022/11/10 01:09:00;;;;;;;;;;;23.80;85.70;;;;;;5015882;28;19913;-68
2022/11/10 01:11:27;;;;;;;;;;;23.80;86.90;;;;;;5019393;28;20293;-67
2022/11/10 01:13:54;;;;;;;;;;;24.10;86.10;;;;;;5023317;28;20293;-69
2022/11/10 01:16:23;;;;;;;;;;;24.30;86.20;;;;;;5023214;28;19991;-68
2022/11/10 01:18:54;;;;;;;;;;;24.00;87.00;;;;;;5021132;28;20361;-68
2022/11/10 01:21:21;;;;;;;;;;;24.20;86.10;;;;;;5022936;28;19913;-68
2022/11/10 01:23:47;;;;;;;;;;;24.30;86.10;;;;;;5020243;28;19917;-70
2022/11/10 01:26:15;;;;;;;;;;;24.40;87.70;;;;;;5022724;28;19910;-69
2022/11/10 01:28:41;;;;;;;;;;;24.80;87.50;;;;;;5022554;28;19995;-68
2022/11/10 01:31:09;;;;;;;;;;;24.90;87.30;;;;;;5022162;28;19913;-69
2022/11/10 01:33:36;;;;;;;;;;;25.10;87.80;;;;;;5018746;28;19909;-70
2022/11/10 01:36:03;;;;;;;;;;;25.10;88.00;;;;;;5023920;28;19916;-69
2022/11/10 01:38:31;;;;;;;;;;;25.20;85.40;;;;;;5011607;28;19928;-68
2022/11/10 01:40:58;;;;;;;;;;;25.00;85.30;;;;;;5021083;28;20773;-68
2022/11/10 01:43:25;;;;;;;;;;;25.20;85.60;;;;;;5013990;28;19924;-70
2022/11/10 01:45:52;;;;;;;;;;;25.00;85.50;;;;;;5013934;28;19913;-70
2022/11/10 01:48:44;;;;;;;;;;;25.20;85.50;;;;;;5014727;28;19909;-69
2022/11/10 01:51:14;;;;;;;;;;;25.30;87.40;;;;;;5020044;28;19916;-70
2022/11/10 01:53:42;;;;;;;;;;;25.00;87.40;;;;;;5018540;28;20388;-75
2022/11/10 01:56:10;;;;;;;;;;;25.00;88.30;;;;;;5018604;28;19960;-69
2022/11/10 01:58:40;;;;;;;;;;;24.70;90.40;;;;;;5003310;28;19925;-71
2022/11/10 02:01:07;;;;;;;;;;;24.70;90.60;;;;;;5005896;28;19909;-73
2022/11/10 02:03:38;;;;;;;;;;;24.60;89.70;;;;;;5009726;28;19920;-70
2022/11/10 02:06:06;;;;;;;;;;;24.60;90.10;;;;;;5029131;28;19915;-68
2022/11/10 02:08:33;;;;;;;;;;;24.60;89.30;;;;;;5026861;28;20163;-69
2022/11/10 02:10:59;;;;;;;;;;;24.70;90.00;;;;;;5034754;28;20003;-69
2022/11/10 02:13:26;;;;;;;;;;;24.90;90.10;;;;;;5034535;28;19917;-70
2022/11/10 02:15:53;;;;;;;;;;;25.40;88.90;;;;;;5021567;28;19909;-68
2022/11/10 02:18:19;;;;;;;;;;;25.30;87.70;;;;;;5022358;28;19920;-69
2022/11/10 02:20:46;;;;;;;;;;;25.10;89.10;;;;;;5022084;28;19952;-69
2022/11/10 02:23:35;;;;;;;;;;;25.00;89.70;;;;;;5022634;28;19910;-70
2022/11/10 02:26:03;;;;;;;;;;;25.10;89.50;;;;;;5008811;28;19918;-67
2022/11/10 02:28:32;;;;;;;;;;;25.20;89.40;;;;;;5021979;28;19913;-69
2022/11/10 02:30:59;;;;;;;;;;;25.10;86.90;;;;;;5021286;28;19913;-68
2022/11/10 02:33:26;;;;;;;;;;;25.20;87.60;;;;;;5022355;28;19992;-68
2022/11/10 02:35:52;;;;;;;;;;;25.50;86.90;;;;;;5020376;28;20354;-69
2022/11/10 02:38:19;;;;;;;;;;;26.00;85.70;;;;;;5021376;28;20400;-69
2022/11/10 02:40:47;;;;;;;;;;;26.20;84.00;;;;;;5020860;28;19971;-71
2022/11/10 02:43:16;;;;;;;;;;;26.00;85.10;;;;;;5021630;28;19913;-69
2022/11/10 02:45:45;;;;;;;;;;;26.20;83.50;;;;;;5017156;28;19917;-70
2022/11/10 02:48:13;;;;;;;;;;;26.90;81.70;;;;;;5020702;28;20270;-69
2022/11/10 02:50:40;;;;;;;;;;;27.30;80.50;;;;;;5017649;28;19920;-72
2022/11/10 02:53:07;;;;;;;;;;;27.80;79.50;;;;;;5021874;28;20000;-75
2022/11/10 02:55:34;;;;;;;;;;;28.50;77.30;;;;;;5022143;28;19909;-71
2022/11/10 02:58:00;;;;;;;;;;;29.10;75.00;;;;;;5019901;28;19913;-69
2022/11/10 03:00:27;;;;;;;;;;;29.20;73.90;;;;;;5020828;28;20783;-71
2022/11/10 03:03:04;;;;;;;;;;;29.50;73.70;;;;;;5002930;28;19913;-71
2022/11/10 03:05:31;;;;;;;;;;;30.40;72.50;;;;;;5021035;28;19917;-71
2022/11/10 03:08:01;;;;;;;;;;;30.60;69.80;;;;;;5020231;28;19939;-69
2022/11/10 03:10:28;;;;;;;;;;;30.90;69.20;;;;;;5021149;28;19913;-71
2022/11/10 03:12:56;;;;;;;;;;;32.00;67.40;;;;;;5019726;28;19920;-68
2022/11/10 03:15:23;;;;;;;;;;;31.60;67.00;;;;;;5020598;28;19916;-69
2022/11/10 03:17:50;;;;;;;;;;;31.70;67.10;;;;;;5003077;28;19952;-69
2022/11/10 03:20:17;;;;;;;;;;;32.90;64.50;;;;;;5021445;28;20344;-70
2022/11/10 03:22:44;;;;;;;;;;;32.60;64.20;;;;;;5020579;28;19923;-72
2022/11/10 03:25:11;;;;;;;;;;;32.90;63.70;;;;;;5019572;28;19919;-72
2022/11/10 03:27:38;;;;;;;;;;;32.50;63.60;;;;;;5022011;28;19960;-70
2022/11/10 03:30:05;;;;;;;;;;;32.60;63.50;;;;;;5019490;28;19921;-70
2022/11/10 03:32:32;;;;;;;;;;;33.20;63.30;;;;;;5021266;28;19932;-68
2022/11/10 03:34:59;;;;;;;;;;;33.80;62.80;;;;;;5019475;28;19909;-69
2022/11/10 03:37:25;;;;;;;;;;;34.00;62.40;;;;;;5021077;28;19956;-69
2022/11/10 03:39:52;;;;;;;;;;;35.20;61.10;;;;;;5020164;28;19957;-67
2022/11/10 03:42:19;;;;;;;;;;;35.40;58.90;;;;;;5021616;28;19944;-69
2022/11/10 03:44:45;;;;;;;;;;;34.90;60.20;;;;;;5020684;28;19916;-72
2022/11/10 03:47:12;;;;;;;;;;;34.30;60.20;;;;;;5020545;28;19958;-75
2022/11/10 03:49:39;;;;;;;;;;;33.10;61.70;;;;;;5020458;28;20743;-71
2022/11/10 03:52:05;;;;;;;;;;;34.80;59.60;;;;;;5019087;28;19909;-75
2022/11/10 03:54:32;;;;;;;;;;;34.60;59.30;;;;;;5015198;28;20020;-70
2022/11/10 03:56:59;;;;;;;;;;;34.20;59.50;;;;;;5006655;28;19913;-67
2022/11/10 03:59:25;;;;;;;;;;;34.00;59.90;;;;;;5017702;28;19921;-67
2022/11/10 04:01:52;;;;;;;;;;;33.20;60.40;;;;;;5019700;28;19916;-68
2022/11/10 04:09:48;;;;;;;;;;;32.40;59.80;;;;;;5017451;28;20031;-69
2022/11/10 04:17:50;;;;;;;;;;;33.50;59.80;;;;;;5017853;28;19939;-70
2022/11/10 04:20:17;;;;;;;;;;;32.90;56.90;;;;;;5019404;28;19913;-70
2022/11/10 04:25:28;;;;;;;;;;;31.70;57.90;;;;;;5012073;28;20079;-70
2022/11/10 04:27:55;;;;;;;;;;;31.70;56.70;;;;;;5001485;28;20366;-68
2022/11/10 04:30:21;;;;;;;;;;;31.60;58.20;;;;;;5019395;28;19913;-69
2022/11/10 04:32:48;;;;;;;;;;;32.30;57.10;;;;;;5016179;28;19917;-69
2022/11/10 04:35:15;;;;;;;;;;;31.80;58.10;;;;;;5000015;28;20243;-68
2022/11/10 04:37:41;;;;;;;;;;;31.90;58.50;;;;;;5006962;28;19917;-69
2022/11/10 04:40:08;;;;;;;;;;;32.60;56.50;;;;;;5019196;28;19921;-68
2022/11/10 04:42:35;;;;;;;;;;;32.90;56.50;;;;;;5002496;28;20294;-68
2022/11/10 04:45:01;;;;;;;;;;;32.80;56.80;;;;;;5018238;28;19909;-68
2022/11/10 04:47:28;;;;;;;;;;;33.50;56.60;;;;;;5019719;28;19913;-68
2022/11/10 04:49:54;;;;;;;;;;;33.80;56.50;;;;;;5019651;28;19935;-66
2022/11/10 04:52:21;;;;;;;;;;;33.50;56.30;;;;;;5020227;28;19914;-68
2022/11/10 04:54:48;;;;;;;;;;;33.10;57.70;;;;;;5019700;28;19931;-69
2022/11/10 04:57:14;;;;;;;;;;;32.90;57.40;;;;;;5018690;28;20002;-68
2022/11/10 04:59:41;;;;;;;;;;;32.90;57.80;;;;;;5017913;28;19918;-68
2022/11/10 05:02:08;;;;;;;;;;;32.70;57.20;;;;;;5019064;28;20369;-69
2022/11/10 05:04:34;;;;;;;;;;;32.70;58.30;;;;;;5019912;28;19909;-68
2022/11/10 05:07:01;;;;;;;;;;;33.30;56.00;;;;;;5013873;28;20381;-68
2022/11/10 05:09:27;;;;;;;;;;;33.30;57.90;;;;;;5020098;28;19920;-69
2022/11/10 05:11:54;;;;;;;;;;;33.20;56.40;;;;;;5015378;28;19952;-68
2022/11/10 05:14:21;;;;;;;;;;;32.90;57.60;;;;;;5011334;28;20175;-67
2022/11/10 05:16:47;;;;;;;;;;;34.00;56.80;;;;;;5016864;28;19914;-71
2022/11/10 05:19:14;;;;;;;;;;;33.70;57.40;;;;;;5018745;28;19925;-69
2022/11/10 05:21:41;;;;;;;;;;;33.40;56.80;;;;;;5012230;28;20000;-67
2022/11/10 05:24:07;;;;;;;;;;;32.80;58.00;;;;;;4996754;28;19913;-67
2022/11/10 05:26:34;;;;;;;;;;;32.40;58.20;;;;;;5018357;28;20300;-67
2022/11/10 05:29:00;;;;;;;;;;;32.00;60.10;;;;;;5021575;28;19958;-67
2022/11/10 05:31:29;;;;;;;;;;;32.00;59.10;;;;;;5014784;28;19924;-69
2022/11/10 05:33:56;;;;;;;;;;;31.30;60.70;;;;;;5018183;28;20381;-67
2022/11/10 05:36:23;;;;;;;;;;;31.40;59.50;;;;;;5018506;28;19917;-68
2022/11/10 05:38:49;;;;;;;;;;;31.30;59.40;;;;;;5008613;28;20016;-68
2022/11/10 05:41:16;;;;;;;;;;;31.60;60.70;;;;;;5014461;28;20096;-70
2022/11/10 05:43:42;;;;;;;;;;;32.10;59.10;;;;;;5018205;28;20443;-67
2022/11/10 05:46:09;;;;;;;;;;;32.50;59.50;;;;;;5019230;28;19915;-68
2022/11/10 05:48:36;;;;;;;;;;;32.70;59.00;;;;;;5018329;28;19916;-68
2022/11/10 05:51:02;;;;;;;;;;;32.70;59.00;;;;;;5022439;28;19913;-70
2022/11/10 05:53:29;;;;;;;;;;;32.90;58.40;;;;;;5013910;28;19996;-69
2022/11/10 05:55:56;;;;;;;;;;;32.80;59.10;;;;;;5001970;28;20317;-68
2022/11/10 05:58:22;;;;;;;;;;;32.80;58.50;;;;;;5008705;28;19921;-68
2022/11/10 06:00:49;;;;;;;;;;;31.60;59.70;;;;;;5022052;28;19909;-67
2022/11/10 06:03:16;;;;;;;;;;;31.60;60.90;;;;;;5016363;28;20370;-67
2022/11/10 06:05:43;;;;;;;;;;;31.10;60.60;;;;;;5015980;28;19923;-69
2022/11/10 06:08:10;;;;;;;;;;;30.70;60.40;;;;;;5023526;28;19909;-69
2022/11/10 06:10:38;;;;;;;;;;;30.20;62.30;;;;;;5021199;28;19921;-67
2022/11/10 06:13:05;;;;;;;;;;;29.50;63.90;;;;;;5033327;28;19920;-69
2022/11/10 06:15:32;;;;;;;;;;;28.90;64.80;;;;;;5003037;28;19910;-68
2022/11/10 06:17:59;;;;;;;;;;;28.70;65.50;;;;;;5015374;28;19917;-69
2022/11/10 06:20:25;;;;;;;;;;;28.20;65.90;;;;;;5023118;28;19992;-67
2022/11/10 06:22:59;;;;;;;;;;;27.40;67.50;;;;;;5019337;28;19916;-68
2022/11/10 06:25:27;;;;;;;;;;;26.90;68.00;;;;;;5003370;28;19910;-68
2022/11/10 06:27:54;;;;;;;;;;;26.40;68.70;;;;;;5017218;28;20059;-68
2022/11/10 06:30:20;;;;;;;;;;;26.30;69.30;;;;;;5020298;28;19920;-72
2022/11/10 06:32:47;;;;;;;;;;;25.80;71.00;;;;;;5018955;28;19921;-71
2022/11/10 06:35:14;;;;;;;;;;;25.50;71.80;;;;;;5021814;28;19913;-68
2022/11/10 06:37:41;;;;;;;;;;;25.30;72.70;;;;;;5021277;28;19909;-71
2022/11/10 06:40:09;;;;;;;;;;;25.30;73.00;;;;;;5021543;28;20054;-68
2022/11/10 06:42:36;;;;;;;;;;;25.10;72.80;;;;;;5020282;28;19913;-69
2022/11/10 06:45:03;;;;;;;;;;;25.00;73.30;;;;;;5020559;28;19917;-69
2022/11/10 06:47:29;;;;;;;;;;;25.00;74.90;;;;;;5022104;28;19996;-69
2022/11/10 06:49:56;;;;;;;;;;;24.90;75.80;;;;;;5019016;28;19967;-68
2022/11/10 06:52:23;;;;;;;;;;;24.80;75.50;;;;;;5021327;28;19971;-69
2022/11/10 06:54:49;;;;;;;;;;;24.60;76.50;;;;;;5017713;28;19917;-70
2022/11/10 06:57:16;;;;;;;;;;;24.40;76.50;;;;;;5021806;28;19924;-69
2022/11/10 06:59:43;;;;;;;;;;;24.10;77.60;;;;;;5021778;28;19928;-69
2022/11/10 07:02:15;;;;;;;;;;;24.00;78.10;;;;;;5018330;28;20591;-68
2022/11/10 07:04:42;;;;;;;;;;;24.00;78.40;;;;;;5020973;28;19917;-67
2022/11/10 07:07:09;;;;;;;;;;;24.10;78.30;;;;;;5016271;28;19921;-67
2022/11/10 07:09:36;;;;;;;;;;;23.90;77.70;;;;;;5020431;28;19909;-66
2022/11/10 07:12:04;;;;;;;;;;;23.80;78.10;;;;;;5020461;28;19916;-68
2022/11/10 07:14:30;;;;;;;;;;;23.70;78.80;;;;;;5020429;28;19920;-67
2022/11/10 07:16:57;;;;;;;;;;;23.30;79.90;;;;;;5019955;28;19953;-67
2022/11/10 07:19:24;;;;;;;;;;;23.20;81.50;;;;;;5019784;28;20012;-68
2022/11/10 07:21:50;;;;;;;;;;;23.20;82.50;;;;;;5019920;28;19913;-67
2022/11/10 07:24:17;;;;;;;;;;;23.20;82.00;;;;;;5019664;28;19920;-67
2022/11/10 07:26:44;;;;;;;;;;;23.20;81.80;;;;;;5020424;28;20074;-69
2022/11/10 07:29:10;;;;;;;;;;;23.00;81.90;;;;;;5020186;28;19909;-68
2022/11/10 07:31:37;;;;;;;;;;;22.80;81.30;;;;;;5020670;28;19913;-66
2022/11/10 07:34:04;;;;;;;;;;;22.40;83.10;;;;;;5019647;28;19920;-67
2022/11/10 07:36:30;;;;;;;;;;;22.20;85.80;;;;;;5021216;28;19931;-66
2022/11/10 07:38:57;;;;;;;;;;;22.00;86.10;;;;;;5016313;28;19921;-67
2022/11/10 07:41:24;;;;;;;;;;;22.00;87.00;;;;;;5022273;28;19916;-66
2022/11/10 07:43:50;;;;;;;;;;;21.90;87.70;;;;;;5009137;28;20549;-66
2022/11/10 07:46:17;;;;;;;;;;;22.00;88.20;;;;;;5002329;28;19910;-68
2022/11/10 07:48:44;;;;;;;;;;;21.90;88.10;;;;;;5020407;28;19975;-66
2022/11/10 07:51:10;;;;;;;;;;;21.90;88.40;;;;;;5020251;28;19910;-66
2022/11/10 07:53:38;;;;;;;;;;;21.80;88.40;;;;;;5014317;28;19914;-67
2022/11/10 07:56:05;;;;;;;;;;;21.90;88.10;;;;;;5019374;28;19924;-67
2022/11/10 07:58:32;;;;;;;;;;;21.80;89.20;;;;;;5022346;28;20004;-65
2022/11/10 08:00:59;;;;;;;;;;;21.70;89.40;;;;;;5018676;28;19909;-67
2022/11/10 08:03:26;;;;;;;;;;;21.60;90.20;;;;;;5018330;28;19988;-67
2022/11/10 08:05:52;;;;;;;;;;;21.40;90.30;;;;;;5019812;28;19970;-68
2022/11/10 08:08:19;;;;;;;;;;;21.50;90.30;;;;;;5019558;28;20740;-67
2022/11/10 08:10:46;;;;;;;;;;;21.40;90.70;;;;;;5019619;28;19924;-68
2022/11/10 08:13:13;;;;;;;;;;;21.20;90.90;;;;;;5001106;28;20405;-65
2022/11/10 08:15:40;;;;;;;;;;;21.10;91.20;;;;;;5000956;28;19917;-68
2022/11/10 08:18:17;;;;;;;;;;;21.10;91.90;;;;;;5018411;28;20255;-66
2022/11/10 08:20:44;;;;;;;;;;;21.30;92.20;;;;;;5016541;28;20416;-67
2022/11/10 08:23:11;;;;;;;;;;;21.20;91.90;;;;;;5017770;28;19986;-67
2022/11/10 08:25:37;;;;;;;;;;;21.00;91.80;;;;;;5020187;28;19968;-66
2022/11/10 08:28:08;;;;;;;;;;;20.80;92.60;;;;;;5017906;28;19913;-67
2022/11/10 08:30:35;;;;;;;;;;;20.70;92.50;;;;;;5019640;28;19917;-68
2022/11/10 08:33:03;;;;;;;;;;;20.70;92.50;;;;;;5013730;28;19940;-66
2022/11/10 08:35:31;;;;;;;;;;;20.70;92.00;;;;;;5018694;28;19920;-67
2022/11/10 08:37:57;;;;;;;;;;;20.50;92.30;;;;;;5019377;28;19917;-68
2022/11/10 08:40:26;;;;;;;;;;;20.50;92.70;;;;;;4998554;28;20339;-67
2022/11/10 08:42:59;;;;;;;;;;;20.50;92.90;;;;;;5019443;28;19917;-68
2022/11/10 08:45:26;;;;;;;;;;;20.40;93.20;;;;;;5020362;28;19996;-66
2022/11/10 08:47:59;;;;;;;;;;;20.40;93.20;;;;;;4999795;28;19914;-68
2022/11/10 08:50:26;;;;;;;;;;;20.40;93.40;;;;;;4999779;28;20358;-67
2022/11/10 08:52:53;;;;;;;;;;;20.40;93.60;;;;;;5014249;28;19996;-68
2022/11/10 08:55:20;;;;;;;;;;;20.40;93.60;;;;;;5031536;28;20353;-68
2022/11/10 08:57:47;;;;;;;;;;;20.30;93.90;;;;;;5037659;28;19920;-69
2022/11/10 09:00:14;;;;;;;;;;;20.30;93.90;;;;;;5019285;28;20416;-66
2022/11/10 09:02:41;;;;;;;;;;;20.30;94.00;;;;;;5017992;28;19913;-66
2022/11/10 09:05:08;;;;;;;;;;;20.40;94.40;;;;;;4999829;28;19917;-67
2022/11/10 09:07:47;;;;;;;;;;;20.40;94.30;;;;;;5007616;28;19918;-68
2022/11/10 09:10:14;;;;;;;;;;;20.40;94.20;;;;;;5013593;28;19928;-67
2022/11/10 09:12:41;;;;;;;;;;;20.30;94.60;;;;;;5018900;28;20332;-69
2022/11/10 09:15:09;;;;;;;;;;;20.20;94.80;;;;;;5019546;28;20003;-67
2022/11/10 09:17:36;;;;;;;;;;;20.20;95.20;;;;;;5019184;28;19922;-67
2022/11/10 09:20:03;;;;;;;;;;;20.10;95.40;;;;;;5019343;28;19921;-66
2022/11/10 09:22:30;;;;;;;;;;;20.10;95.70;;;;;;4997539;28;19914;-67
2022/11/10 09:24:57;;;;;;;;;;;20.10;95.80;;;;;;5004100;28;19914;-67
2022/11/10 09:27:23;;;;;;;;;;;20.10;95.90;;;;;;5014756;28;19913;-68
2022/11/10 09:29:50;;;;;;;;;;;20.10;95.90;;;;;;5023891;28;19917;-67
2022/11/10 09:32:16;;;;;;;;;;;20.10;96.00;;;;;;5023575;28;19909;-66
2022/11/10 09:34:43;;;;;;;;;;;20.10;96.00;;;;;;5004645;28;19910;-68
2022/11/10 09:37:10;;;;;;;;;;;20.00;95.90;;;;;;5010233;28;19940;-67
2022/11/10 09:39:36;;;;;;;;;;;20.00;96.00;;;;;;5003188;28;19929;-68
2022/11/10 09:42:18;;;;;;;;;;;20.00;96.10;;;;;;5003694;28;19913;-67
2022/11/10 09:44:50;;;;;;;;;;;20.00;96.20;;;;;;5004218;28;20018;-67
2022/11/10 09:47:26;;;;;;;;;;;20.00;96.50;;;;;;5003284;28;19909;-66
2022/11/10 09:49:55;;;;;;;;;;;20.00;96.20;;;;;;5007938;28;20000;-68
2022/11/10 09:52:24;;;;;;;;;;;20.00;96.60;;;;;;5006211;28;19910;-66
2022/11/10 09:54:56;;;;;;;;;;;20.00;96.30;;;;;;5004145;28;19913;-66
2022/11/10 09:57:24;;;;;;;;;;;19.90;95.90;;;;;;5004687;28;19965;-65
2022/11/10 09:59:51;;;;;;;;;;;19.90;95.90;;;;;;5004262;28;19922;-67
2022/11/10 10:02:29;;;;;;;;;;;19.90;96.00;;;;;;5003864;28;19913;-68
2022/11/10 10:05:01;;;;;;;;;;;19.90;96.20;;;;;;5004688;28;20379;-67
2022/11/10 10:07:37;;;;;;;;;;;19.90;96.50;;;;;;5004234;28;19913;-67
2022/11/10 10:10:16;;;;;;;;;;;19.90;96.50;;;;;;5004327;28;20381;-67
2022/11/10 10:12:56;;;;;;;;;;;19.80;96.40;;;;;;5005531;28;20334;-67
2022/11/10 10:15:34;;;;;;;;;;;19.70;96.50;;;;;;5016570;28;20020;-67
2022/11/10 10:18:01;;;;;;;;;;;19.70;96.70;;;;;;5021520;28;19917;-67
2022/11/10 10:20:30;;;;;;;;;;;19.70;96.80;;;;;;5024536;28;19967;-67
2022/11/10 10:23:12;;;;;;;;;;;19.80;96.70;;;;;;5023863;28;20039;-66
2022/11/10 10:25:40;;;;;;;;;;;19.80;96.80;;;;;;5022783;28;19909;-67
2022/11/10 10:28:13;;;;;;;;;;;19.80;96.50;;;;;;5010003;28;19913;-66
2022/11/10 10:30:40;;;;;;;;;;;19.70;96.50;;;;;;5011650;28;19923;-67
2022/11/10 10:33:20;;;;;;;;;;;19.70;96.30;;;;;;5004111;28;19913;-67
2022/11/10 10:35:48;;;;;;;;;;;19.70;96.40;;;;;;5003743;28;19909;-67
2022/11/10 10:38:31;;;;;;;;;;;19.70;96.20;;;;;;5003975;28;20281;-67
2022/11/10 10:41:00;;;;;;;;;;;19.70;96.10;;;;;;5007381;28;19921;-66
2022/11/10 10:43:26;;;;;;;;;;;19.70;96.40;;;;;;5021287;28;20326;-67
2022/11/10 10:46:09;;;;;;;;;;;19.70;96.50;;;;;;5004170;28;19920;-67
2022/11/10 10:48:36;;;;;;;;;;;19.70;96.60;;;;;;5023316;28;20316;-68
2022/11/10 10:51:03;;;;;;;;;;;19.60;96.70;;;;;;5023443;28;20362;-66
2022/11/10 10:53:29;;;;;;;;;;;19.70;97.00;;;;;;5021889;28;19913;-67
2022/11/10 10:56:17;;;;;;;;;;;19.70;96.90;;;;;;5021798;28;20358;-67
2022/11/10 10:58:58;;;;;;;;;;;19.60;97.10;;;;;;5021255;28;19936;-66
2022/11/10 11:01:24;;;;;;;;;;;19.70;97.10;;;;;;5009573;28;19921;-66
2022/11/10 11:03:52;;;;;;;;;;;19.70;97.10;;;;;;5016546;28;20354;-66
2022/11/10 11:06:20;;;;;;;;;;;19.60;97.20;;;;;;5008526;28;19920;-68
2022/11/10 11:08:55;;;;;;;;;;;19.60;97.60;;;;;;5004072;28;20369;-68
2022/11/10 11:11:26;;;;;;;;;;;19.60;97.70;;;;;;5022123;28;19960;-68
2022/11/10 11:13:53;;;;;;;;;;;19.60;97.50;;;;;;5021760;28;19916;-68
2022/11/10 11:16:19;;;;;;;;;;;19.60;97.30;;;;;;5011894;28;19920;-68
2022/11/10 11:18:46;;;;;;;;;;;19.60;97.40;;;;;;5001265;28;20224;-68
2022/11/10 11:21:33;;;;;;;;;;;19.60;97.40;;;;;;5002728;28;20935;-68
2022/11/10 11:24:00;;;;;;;;;;;19.50;97.60;;;;;;5020308;28;19992;-67
2022/11/10 11:26:29;;;;;;;;;;;19.50;97.60;;;;;;5020401;28;19917;-69
2022/11/10 11:29:08;;;;;;;;;;;19.50;97.80;;;;;;5019690;28;20236;-68
2022/11/10 11:31:44;;;;;;;;;;;19.40;97.90;;;;;;5018423;28;19995;-68
2022/11/10 11:34:21;;;;;;;;;;;19.50;98.20;;;;;;5020125;28;20270;-69
2022/11/10 11:36:56;;;;;;;;;;;19.50;98.30;;;;;;5019173;28;20329;-68
2022/11/10 11:39:39;;;;;;;;;;;19.50;98.40;;;;;;5019157;28;19979;-68
2022/11/10 11:42:22;;;;;;;;;;;19.50;98.50;;;;;;5021243;28;19909;-68
2022/11/10 11:44:48;;;;;;;;;;;19.50;98.70;;;;;;5022179;28;20374;-68
2022/11/10 11:47:41;;;;;;;;;;;19.50;98.60;;;;;;5017351;28;19940;-68
2022/11/10 11:50:26;;;;;;;;;;;19.40;98.80;;;;;;4997490;28;19948;-68
2022/11/10 11:53:19;;;;;;;;;;;19.40;99.20;;;;;;5002022;28;20406;-68
2022/11/10 11:56:04;;;;;;;;;;;19.40;99.20;;;;;;5001837;28;19914;-67
2022/11/10 11:58:30;;;;;;;;;;;19.40;99.40;;;;;;5001252;28;19917;-68
2022/11/10 12:01:09;;;;;;;;;;;19.40;99.50;;;;;;5001991;28;19913;-68
2022/11/10 12:03:36;;;;;;;;;;;19.30;99.60;;;;;;4983222;28;19921;-68
2022/11/10 12:06:22;;;;;;;;;;;19.40;99.80;;;;;;5001596;28;19996;-69
2022/11/10 12:08:57;;;;;;;;;;;19.40;99.80;;;;;;5002359;28;19916;-68
2022/11/10 12:11:24;;;;;;;;;;;19.40;99.80;;;;;;5013087;28;20355;-69
2022/11/10 12:13:51;;;;;;;;;;;19.50;99.90;;;;;;5022084;28;19909;-68
2022/11/10 12:16:17;;;;;;;;;;;19.40;99.90;;;;;;5020726;28;19909;-68
2022/11/10 12:18:44;;;;;;;;;;;19.40;99.90;;;;;;5020529;28;20020;-67
2022/11/10 12:21:22;;;;;;;;;;;19.30;99.90;;;;;;5020477;28;19974;-67
2022/11/10 12:23:57;;;;;;;;;;;19.50;99.90;;;;;;5021437;28;19913;-68
2022/11/10 12:26:43;;;;;;;;;;;19.50;99.70;;;;;;5019739;28;19913;-67
2022/11/10 12:29:20;;;;;;;;;;;19.40;99.90;;;;;;5020547;28;19913;-67
2022/11/10 12:31:47;;;;;;;;;;;19.30;99.70;;;;;;5020858;28;19909;-68
2022/11/10 12:34:22;;;;;;;;;;;19.30;99.90;;;;;;5001935;28;19967;-68
2022/11/10 12:36:50;;;;;;;;;;;19.30;99.90;;;;;;5002872;28;19956;-66
2022/11/10 12:39:26;;;;;;;;;;;19.30;99.90;;;;;;5020140;28;19964;-67
2022/11/10 12:41:55;;;;;;;;;;;19.30;99.90;;;;;;5018750;28;19913;-67
2022/11/10 12:44:24;;;;;;;;;;;19.30;99.90;;;;;;5019753;28;20008;-67
2022/11/10 12:46:53;;;;;;;;;;;19.30;99.90;;;;;;5020878;28;19996;-66
2022/11/10 12:49:20;;;;;;;;;;;19.20;99.90;;;;;;5019795;28;19962;-68
2022/11/10 12:51:52;;;;;;;;;;;19.20;99.90;;;;;;5019780;28;19909;-66
2022/11/10 12:54:20;;;;;;;;;;;19.20;99.90;;;;;;5019717;28;19909;-66
2022/11/10 12:57:25;;;;;;;;;;;19.20;99.90;;;;;;5019424;28;20007;-67
2022/11/10 12:59:57;;;;;;;;;;;19.20;99.90;;;;;;4978685;28;20000;-67
2022/11/10 13:02:49;;;;;;;;;;;19.20;99.90;;;;;;4978462;28;19965;-67
2022/11/10 13:05:16;;;;;;;;;;;19.20;99.90;;;;;;5004634;28;19948;-67
2022/11/10 13:07:47;;;;;;;;;;;19.30;99.90;;;;;;5020173;28;19992;-67
2022/11/10 13:10:27;;;;;;;;;;;19.30;99.90;;;;;;5020663;28;20003;-67
2022/11/10 13:13:05;;;;;;;;;;;19.30;99.90;;;;;;5020587;28;19992;-67
2022/11/10 13:15:38;;;;;;;;;;;19.30;99.90;;;;;;5024793;28;19912;-66
2022/11/10 13:18:06;;;;;;;;;;;19.20;99.90;;;;;;5018568;28;19967;-67
2022/11/10 13:20:38;;;;;;;;;;;19.20;99.90;;;;;;5019253;28;20012;-67
2022/11/10 13:23:23;;;;;;;;;;;19.10;99.90;;;;;;5020709;28;19917;-67
2022/11/10 13:25:57;;;;;;;;;;;19.00;99.90;;;;;;5020077;28;19909;-67
2022/11/10 13:28:41;;;;;;;;;;;18.90;99.90;;;;;;5019126;28;19920;-67
2022/11/10 13:31:26;;;;;;;;;;;18.90;99.90;;;;;;5019930;28;19913;-66
2022/11/10 13:34:15;;;;;;;;;;;18.90;99.90;;;;;;5019247;28;19920;-67
2022/11/10 13:36:46;;;;;;;;;;;18.90;99.90;;;;;;5013599;28;19936;-66
2022/11/10 13:39:22;;;;;;;;;;;19.00;99.90;;;;;;5020740;28;20431;-65
2022/11/10 13:41:50;;;;;;;;;;;19.00;99.90;;;;;;5019651;28;19963;-66
2022/11/10 13:44:24;;;;;;;;;;;19.00;99.90;;;;;;5019881;28;19914;-66
2022/11/10 13:47:01;;;;;;;;;;;19.00;99.90;;;;;;5019842;28;19944;-67
2022/11/10 13:49:36;;;;;;;;;;;19.00;99.90;;;;;;5019616;28;19920;-66
2022/11/10 13:52:09;;;;;;;;;;;18.90;99.90;;;;;;5020411;28;19999;-67
2022/11/10 13:54:45;;;;;;;;;;;18.80;99.90;;;;;;5019546;28;19960;-66
2022/11/10 13:57:14;;;;;;;;;;;18.80;99.90;;;;;;5018903;28;19923;-67
2022/11/10 13:59:51;;;;;;;;;;;18.80;99.90;;;;;;5018776;28;20008;-66
2022/11/10 14:02:47;;;;;;;;;;;18.80;99.90;;;;;;5020967;28;19916;-66
2022/11/10 14:05:29;;;;;;;;;;;18.70;99.90;;;;;;5010839;28;19913;-68
2022/11/10 14:08:01;;;;;;;;;;;18.80;99.90;;;;;;5019600;28;19916;-68
2022/11/10 14:10:39;;;;;;;;;;;18.80;99.90;;;;;;5022385;28;19963;-69
2022/11/10 14:13:18;;;;;;;;;;;18.70;99.90;;;;;;5022918;28;19959;-68
2022/11/10 14:15:45;;;;;;;;;;;18.60;99.90;;;;;;5022294;28;20021;-69
2022/11/10 14:18:26;;;;;;;;;;;18.60;99.90;;;;;;5023094;28;20012;-69
2022/11/10 14:20:57;;;;;;;;;;;18.60;99.90;;;;;;5022927;28;19913;-69
2022/11/10 14:23:27;;;;;;;;;;;18.60;99.90;;;;;;5023723;28;19909;-66
2022/11/10 14:25:58;;;;;;;;;;;18.60;99.90;;;;;;5023408;28;19916;-69
2022/11/10 14:28:25;;;;;;;;;;;18.50;99.90;;;;;;5005816;28;20375;-68
2022/11/10 14:30:53;;;;;;;;;;;18.60;99.90;;;;;;5022775;28;19960;-66
2022/11/10 14:33:20;;;;;;;;;;;18.50;99.90;;;;;;5022441;28;20289;-66
2022/11/10 14:35:57;;;;;;;;;;;18.50;99.90;;;;;;5022157;28;19917;-67
2022/11/10 14:38:30;;;;;;;;;;;18.50;99.90;;;;;;5023062;28;20460;-67
2022/11/10 14:41:00;;;;;;;;;;;18.50;99.90;;;;;;5022724;28;19975;-67
2022/11/10 14:43:31;;;;;;;;;;;18.40;99.90;;;;;;5022919;28;19917;-68
2022/11/10 14:45:59;;;;;;;;;;;18.40;99.90;;;;;;5023183;28;19913;-66